Time;durP1;ratioP1;P1;durP2;ratioP2;P2;SDS_P1;SDS_P2;PMS_P1;PMS_P2;Temp;Humidity;BMP_temperature;BMP_pressure;BME280_temperature;BME280_humidity;BME280_pressure;Samples;Min_cycle;Max_cycle;Signal;HPM_P1;HPM_P2
2022/12/13 07:04:11;;;;;;;;;51.00;40.33;;;;;-2.70;66.99;100193.19;5062513;27;45417;-63
2022/12/13 07:06:37;;;;;;;;;50.67;40.33;;;;;-2.57;67.03;100187.81;5040977;28;45288;-62
2022/12/13 07:09:03;;;;;;;;;41.67;34.67;;;;;-2.41;65.68;100182.56;5053569;27;45432;-63
2022/12/13 07:11:32;;;;;;;;;54.67;38.67;;;;;-2.15;65.39;100194.00;5038878;28;45453;-63
2022/12/13 07:13:59;;;;;;;;;56.00;39.67;;;;;-2.06;64.27;100185.84;5032717;28;45820;-63
2022/12/13 07:16:25;;;;;;;;;52.00;39.33;;;;;-1.89;64.63;100183.13;5035781;28;45811;-64
2022/12/13 07:18:54;;;;;;;;;52.33;35.00;;;;;-1.82;63.63;100175.75;5037287;27;45469;-64
2022/12/13 07:21:20;;;;;;;;;51.33;39.00;;;;;-1.63;63.46;100191.94;5046117;28;45431;-64
2022/12/13 07:23:46;;;;;;;;;51.33;39.00;;;;;-1.60;63.45;100186.91;5041576;28;45581;-62
2022/12/13 07:26:12;;;;;;;;;44.67;38.00;;;;;-1.56;62.97;100191.38;5042503;28;45459;-64
2022/12/13 07:28:37;;;;;;;;;52.33;39.00;;;;;-1.47;62.61;100196.91;5044693;28;45469;-63
2022/12/13 07:31:05;;;;;;;;;57.67;41.33;;;;;-1.36;61.47;100216.19;5046930;28;45378;-63
2022/12/13 07:33:31;;;;;;;;;53.33;40.33;;;;;-1.39;61.45;100223.78;5036800;28;45634;-63
2022/12/13 07:36:08;;;;;;;;;36.67;33.33;;;;;-1.51;61.50;100208.72;5044974;28;45662;-62
2022/12/13 07:38:35;;;;;;;;;54.67;36.00;;;;;-1.45;62.46;100213.22;5047463;28;45745;-61
2022/12/13 07:41:02;;;;;;;;;49.00;38.33;;;;;-1.35;61.67;100209.38;5048905;28;45593;-62
2022/12/13 07:43:28;;;;;;;;;56.00;39.67;;;;;-1.39;61.23;100216.06;5042749;28;46109;-63
2022/12/13 07:45:58;;;;;;;;;53.00;39.00;;;;;-1.34;61.44;100208.53;5040081;28;45438;-62
2022/12/13 07:48:24;;;;;;;;;55.00;35.00;;;;;-1.26;61.10;100219.13;5044053;28;45365;-64
2022/12/13 07:50:49;;;;;;;;;49.67;38.33;;;;;-1.29;61.09;100217.31;5043470;28;45386;-66
2022/12/13 07:53:18;;;;;;;;;49.00;36.67;;;;;-1.23;61.05;100238.13;5035033;28;45367;-65
2022/12/13 07:55:44;;;;;;;;;48.00;38.33;;;;;-1.30;60.92;100219.00;5041411;28;45703;-68
2022/12/13 07:58:14;;;;;;;;;49.67;40.33;;;;;-1.11;61.40;100228.34;5061252;28;45922;-63
2022/12/13 08:00:42;;;;;;;;;40.67;35.00;;;;;-1.04;61.22;100237.19;5048269;28;45512;-66
2022/12/13 08:03:08;;;;;;;;;48.33;38.67;;;;;-0.87;60.98;100238.75;5055167;27;45919;-62
2022/12/13 08:05:35;;;;;;;;;50.00;39.00;;;;;-0.83;59.29;100251.72;5046489;28;45642;-63
2022/12/13 08:08:02;;;;;;;;;46.33;36.33;;;;;-0.87;59.63;100249.03;5065564;27;45522;-63
2022/12/13 08:10:28;;;;;;;;;46.33;37.00;;;;;-0.86;59.82;100249.91;5053689;28;45506;-64
2022/12/13 08:12:54;;;;;;;;;57.67;40.67;;;;;-0.86;59.49;100245.63;5067775;27;45823;-63
2022/12/13 08:15:20;;;;;;;;;52.00;42.00;;;;;-0.75;59.00;100253.78;5043286;27;45425;-67
2022/12/13 08:17:47;;;;;;;;;50.33;40.33;;;;;-0.71;59.18;100250.53;5049329;28;45525;-63
2022/12/13 08:20:16;;;;;;;;;54.67;42.67;;;;;-0.84;59.06;100237.97;5027130;28;45528;-62
2022/12/13 08:22:42;;;;;;;;;55.00;41.00;;;;;-0.74;59.58;100259.78;5046264;28;45627;-63
2022/12/13 08:25:08;;;;;;;;;52.67;39.00;;;;;-0.75;58.73;100258.06;5042211;28;45396;-62
2022/12/13 08:27:34;;;;;;;;;53.33;42.00;;;;;-0.71;59.38;100247.09;5034412;28;45459;-64
2022/12/13 08:30:00;;;;;;;;;50.00;41.00;;;;;-0.58;58.90;100259.59;5055607;28;45520;-63
2022/12/13 08:32:26;;;;;;;;;49.67;35.67;;;;;-0.56;58.28;100246.78;5032761;28;46676;-62
2022/12/13 08:34:51;;;;;;;;;57.67;41.33;;;;;-0.46;58.71;100246.31;5050883;28;46093;-62
2022/12/13 08:37:17;;;;;;;;;53.00;41.00;;;;;0.24;57.32;100248.06;5055446;28;45491;-62
2022/12/13 08:39:43;;;;;;;;;52.67;42.33;;;;;1.20;55.51;100263.34;5043941;28;45730;-62
2022/12/13 08:42:15;;;;;;;;;60.67;44.67;;;;;1.38;54.00;100239.84;5049364;28;47000;-66
2022/12/13 08:44:41;;;;;;;;;52.33;40.00;;;;;1.32;53.94;100252.53;5051130;28;45482;-64
2022/12/13 08:47:07;;;;;;;;;52.67;40.67;;;;;1.20;54.31;100257.31;5052411;28;45606;-64
2022/12/13 08:49:33;;;;;;;;;54.00;39.33;;;;;1.18;54.52;100262.41;5035758;28;45445;-67
2022/12/13 08:51:59;;;;;;;;;58.67;44.33;;;;;1.62;53.57;100267.22;5032240;28;47494;-64
2022/12/13 08:54:24;;;;;;;;;59.33;44.00;;;;;2.28;52.86;100259.69;5041832;28;45442;-61
2022/12/13 08:56:51;;;;;;;;;54.00;41.00;;;;;2.93;50.77;100245.88;5045507;28;45863;-65
2022/12/13 08:59:17;;;;;;;;;61.00;45.00;;;;;4.17;48.75;100258.16;5046800;28;45543;-64
2022/12/13 09:01:43;;;;;;;;;58.67;45.00;;;;;5.31;46.56;100251.56;5025801;28;47683;-65
2022/12/13 09:04:08;;;;;;;;;53.75;39.00;;;;;4.71;45.66;100254.00;5039185;28;45479;-63
2022/12/13 09:06:34;;;;;;;;;61.00;44.33;;;;;3.87;46.25;100250.59;5027371;28;45354;-65
2022/12/13 09:09:00;;;;;;;;;55.25;39.75;;;;;3.45;47.82;100246.25;5031223;28;45512;-63
2022/12/13 09:11:25;;;;;;;;;55.75;42.50;;;;;3.49;47.93;100242.88;5061001;28;46427;-62
2022/12/13 09:13:51;;;;;;;;;53.67;41.33;;;;;3.38;47.65;100235.72;5052208;28;45444;-62
2022/12/13 09:16:22;;;;;;;;;55.00;42.00;;;;;4.05;46.53;100227.66;5043517;28;45458;-64
2022/12/13 09:18:48;;;;;;;;;56.33;44.33;;;;;5.08;44.76;100230.41;5021153;28;45958;-64
2022/12/13 09:21:14;;;;;;;;;53.75;42.75;;;;;5.48;43.64;100225.84;5039023;28;45523;-63
2022/12/13 09:23:41;;;;;;;;;54.50;41.50;;;;;5.99;43.31;100192.75;5028146;28;45509;-62
2022/12/13 09:26:07;;;;;;;;;53.50;39.00;;;;;6.51;42.02;100223.66;5029961;28;45371;-65
2022/12/13 09:28:35;;;;;;;;;56.00;44.00;;;;;6.53;41.41;100216.75;5051876;28;45633;-62
2022/12/13 09:31:17;;;;;;;;;53.75;39.00;;;;;6.41;40.88;100221.81;5052456;28;46107;-63
2022/12/13 09:33:44;;;;;;;;;50.75;41.00;;;;;6.63;41.40;100217.72;5046130;28;45758;-63
2022/12/13 09:36:15;;;;;;;;;58.50;42.00;;;;;6.95;40.59;100226.69;5044041;28;45654;-62
2022/12/13 09:38:42;;;;;;;;;51.75;40.00;;;;;7.38;38.78;100224.41;5046593;28;45798;-62
2022/12/13 09:41:23;;;;;;;;;51.00;40.00;;;;;7.40;38.89;100221.81;5047752;28;46053;-64
2022/12/13 09:43:53;;;;;;;;;54.50;42.00;;;;;7.42;39.54;100220.94;5038786;28;45414;-65
2022/12/13 09:46:38;;;;;;;;;47.75;38.50;;;;;7.92;38.27;100211.66;5040935;27;45528;-66
2022/12/13 09:49:13;;;;;;;;;51.00;41.00;;;;;8.52;36.69;100197.97;5035603;28;45506;-63
2022/12/13 09:51:38;;;;;;;;;51.50;40.25;;;;;8.82;35.98;100195.38;5047720;28;46722;-64
2022/12/13 09:54:04;;;;;;;;;53.75;42.00;;;;;9.01;36.60;100218.91;5035212;28;45438;-65
2022/12/13 09:56:31;;;;;;;;;51.00;39.75;;;;;9.03;36.57;100198.88;5053634;28;45535;-66
2022/12/13 09:58:58;;;;;;;;;46.25;36.75;;;;;9.69;36.07;100212.72;5057323;28;45438;-63
2022/12/13 10:01:24;;;;;;;;;51.50;38.75;;;;;10.85;34.70;100207.81;5063578;27;46779;-65
2022/12/13 10:03:52;;;;;;;;;46.50;37.00;;;;;12.12;32.76;100203.03;5053613;28;45500;-62
2022/12/13 10:06:23;;;;;;;;;51.50;39.00;;;;;12.69;31.31;100196.97;5046118;28;45369;-62
2022/12/13 10:08:54;;;;;;;;;49.50;39.50;;;;;13.02;30.86;100187.69;5032264;28;45479;-64
2022/12/13 10:11:21;;;;;;;;;47.50;38.50;;;;;13.15;29.74;100180.47;5062115;28;45481;-63
2022/12/13 10:13:54;;;;;;;;;48.75;39.75;;;;;13.59;29.66;100202.50;5033382;28;45494;-63
2022/12/13 10:16:28;;;;;;;;;49.50;39.50;;;;;13.94;28.39;100193.03;5048948;28;45550;-63
2022/12/13 10:18:54;;;;;;;;;48.50;38.25;;;;;13.56;27.87;100192.91;5042943;28;45444;-64
2022/12/13 10:21:40;;;;;;;;;49.75;38.75;;;;;14.00;28.75;100193.78;5028250;28;47129;-65
2022/12/13 10:24:26;;;;;;;;;52.00;41.50;;;;;14.97;26.90;100194.28;5046922;28;46576;-64
2022/12/13 10:26:52;;;;;;;;;50.75;41.00;;;;;15.67;26.19;100188.91;5053036;28;45469;-63
2022/12/13 10:29:18;;;;;;;;;50.75;41.50;;;;;16.67;25.58;100178.03;5042910;28;46462;-63
2022/12/13 10:31:47;;;;;;;;;55.75;39.75;;;;;17.24;24.36;100175.31;5052203;28;46972;-69
2022/12/13 10:34:27;;;;;;;;;52.75;41.00;;;;;17.84;23.65;100162.63;5055066;28;45890;-69
2022/12/13 10:36:53;;;;;;;;;47.25;37.00;;;;;18.11;23.42;100168.69;5022798;28;46585;-68
2022/12/13 10:39:39;;;;;;;;;40.50;34.50;;;;;17.42;23.73;100179.13;5048440;28;45580;-65
2022/12/13 10:42:26;;;;;;;;;48.00;39.25;;;;;16.69;23.74;100170.06;5048578;28;45747;-66
2022/12/13 10:45:17;;;;;;;;;44.75;37.00;;;;;16.52;24.49;100184.69;5042088;28;46409;-67
2022/12/13 10:47:44;;;;;;;;;47.50;36.00;;;;;17.58;23.67;100175.00;5043624;28;45830;-62
2022/12/13 10:50:23;;;;;;;;;44.00;35.25;;;;;18.36;22.77;100173.88;5033423;28;45746;-65
2022/12/13 10:52:49;;;;;;;;;49.25;37.75;;;;;18.98;21.78;100165.22;5035912;28;46770;-65
2022/12/13 10:55:25;;;;;;;;;43.25;34.50;;;;;18.92;21.75;100154.00;5056308;28;45410;-65
2022/12/13 10:57:53;;;;;;;;;51.75;39.00;;;;;16.05;22.70;100136.78;5052538;28;45607;-67
2022/12/13 11:00:40;;;;;;;;;38.50;32.75;;;;;16.91;23.63;100151.72;5062188;28;45547;-64
2022/12/13 11:03:09;;;;;;;;;32.00;29.75;;;;;19.05;22.24;100136.63;5051899;28;46579;-66
2022/12/13 11:05:37;;;;;;;;;31.75;28.75;;;;;20.30;20.63;100130.09;5055815;28;45484;-64
2022/12/13 11:08:26;;;;;;;;;45.25;34.00;;;;;21.18;21.81;100126.63;5034222;28;45450;-63
2022/12/13 11:11:06;;;;;;;;;40.50;33.50;;;;;21.69;18.72;100134.69;5054475;28;45500;-62
2022/12/13 11:13:44;;;;;;;;;41.50;31.25;;;;;19.15;20.73;100110.53;5053600;28;45232;-65
2022/12/13 11:16:21;;;;;;;;;44.50;35.50;;;;;15.77;23.15;100112.97;5056098;28;45335;-65
2022/12/13 11:18:53;;;;;;;;;40.25;34.00;;;;;13.62;26.00;100120.00;5053753;28;45327;-64
2022/12/13 11:21:28;;;;;;;;;40.25;34.25;;;;;11.86;27.90;100116.72;5036175;28;45488;-66
2022/12/13 11:23:56;;;;;;;;;39.75;33.00;;;;;10.52;29.48;100125.13;5051713;28;45561;-64
2022/12/13 11:26:24;;;;;;;;;39.50;34.50;;;;;9.63;31.13;100131.66;5053060;28;45427;-62
2022/12/13 11:29:17;;;;;;;;;38.25;35.00;;;;;8.92;32.33;100138.81;5062489;28;45440;-64
2022/12/13 11:31:49;;;;;;;;;31.00;30.00;;;;;8.33;33.23;100124.84;5054120;28;45741;-62
2022/12/13 11:34:14;;;;;;;;;53.50;41.25;;;;;7.76;34.07;100124.72;5058165;28;45401;-64
2022/12/13 11:36:47;;;;;;;;;53.75;39.75;;;;;7.10;36.09;100132.19;5041329;28;45545;-64
2022/12/13 11:39:17;;;;;;;;;53.25;37.50;;;;;6.78;37.61;100124.16;5033925;28;45521;-65
2022/12/13 11:41:56;;;;;;;;;49.75;36.00;;;;;6.39;37.93;100122.09;5052426;28;45900;-64
2022/12/13 11:44:37;;;;;;;;;53.25;40.50;;;;;6.06;40.63;100137.38;5051645;28;47585;-64
2022/12/13 11:47:04;;;;;;;;;46.25;37.50;;;;;5.86;37.89;100133.63;5051571;28;45508;-64
2022/12/13 11:49:41;;;;;;;;;53.00;41.25;;;;;5.48;38.70;100131.44;5052964;28;45661;-64
2022/12/13 11:52:24;;;;;;;;;50.25;36.50;;;;;5.20;38.65;100136.28;5055439;28;45469;-64
2022/12/13 11:54:55;;;;;;;;;49.50;37.75;;;;;4.86;38.87;100125.41;5055229;28;46504;-64
2022/12/13 11:57:47;;;;;;;;;49.00;36.25;;;;;4.40;40.18;100119.47;5059205;28;45350;-63
2022/12/13 12:00:31;;;;;;;;;47.00;37.00;;;;;4.15;40.80;100110.41;5055654;28;45598;-64
2022/12/13 12:03:14;;;;;;;;;48.50;35.25;;;;;3.97;41.35;100103.16;5053787;28;45453;-64
2022/12/13 12:05:46;;;;;;;;;49.50;37.50;;;;;3.93;41.60;100103.06;5034544;28;46589;-65
2022/12/13 12:08:15;;;;;;;;;45.25;34.25;;;;;3.93;43.11;100106.50;5049351;28;45472;-64
2022/12/13 12:10:43;;;;;;;;;53.25;41.25;;;;;3.85;42.65;100102.94;5052003;28;45378;-65
2022/12/13 12:13:12;;;;;;;;;40.50;33.75;;;;;3.85;42.80;100086.50;5048280;28;45380;-64
2022/12/13 12:15:48;;;;;;;;;47.00;35.25;;;;;3.91;42.85;100095.25;5054785;28;46458;-65
2022/12/13 12:18:15;;;;;;;;;51.25;39.00;;;;;3.70;42.31;100100.03;5033538;28;45608;-62
2022/12/13 12:20:59;;;;;;;;;48.25;36.00;;;;;3.55;43.38;100092.81;5052323;28;45467;-64
2022/12/13 12:23:34;;;;;;;;;44.00;37.00;;;;;3.52;42.55;100085.88;5053963;28;45515;-65
2022/12/13 12:26:09;;;;;;;;;49.75;36.75;;;;;3.43;43.30;100080.50;5041569;28;45450;-65
2022/12/13 12:28:54;;;;;;;;;53.25;40.75;;;;;3.25;43.85;100082.72;5043159;28;46115;-64
2022/12/13 12:31:35;;;;;;;;;46.25;36.25;;;;;3.11;44.66;100074.69;5061390;28;45661;-63
2022/12/13 12:34:14;;;;;;;;;47.50;37.75;;;;;3.08;44.72;100062.53;5061747;28;45220;-65
2022/12/13 12:37:11;;;;;;;;;46.75;36.25;;;;;3.05;43.71;100056.41;5030486;28;46776;-64
2022/12/13 12:39:57;;;;;;;;;52.50;38.50;;;;;2.89;44.27;100061.25;5047483;28;45471;-64
2022/12/13 12:42:48;;;;;;;;;50.50;37.50;;;;;2.80;44.08;100057.59;5052702;27;45460;-65
2022/12/13 12:45:38;;;;;;;;;34.50;33.00;;;;;2.74;44.52;100040.22;5054750;27;45834;-64
2022/12/13 12:48:37;;;;;;;;;43.00;35.50;;;;;2.69;44.38;100023.75;5042012;28;46874;-63
2022/12/13 12:51:31;;;;;;;;;45.25;38.25;;;;;2.61;44.90;100008.06;5041432;28;45691;-64
2022/12/13 12:54:12;;;;;;;;;49.25;37.50;;;;;2.61;45.50;100008.06;5023813;28;45487;-64
2022/12/13 12:56:56;;;;;;;;;40.25;33.50;;;;;2.64;44.98;100002.94;5039274;28;45548;-63
2022/12/13 12:59:36;;;;;;;;;50.00;37.50;;;;;2.60;45.35;100001.13;5056858;28;46346;-62
2022/12/13 13:02:20;;;;;;;;;41.00;35.00;;;;;2.50;45.89;100005.22;5045045;27;45782;-63
2022/12/13 13:04:57;;;;;;;;;42.00;35.75;;;;;2.40;44.59;100011.03;5046257;28;45355;-66
2022/12/13 13:07:30;;;;;;;;;41.00;32.75;;;;;2.39;46.17;100014.44;5057169;28;45636;-67
2022/12/13 13:09:58;;;;;;;;;39.00;32.50;;;;;2.46;44.99;100005.13;5060642;28;45670;-64
2022/12/13 13:12:25;;;;;;;;;41.00;32.25;;;;;2.63;45.20;99998.59;5036267;28;45566;-64
2022/12/13 13:14:51;;;;;;;;;50.00;36.00;;;;;2.62;44.73;99986.53;5055819;28;45466;-65
2022/12/13 13:17:19;;;;;;;;;46.50;33.00;;;;;2.73;45.26;99984.19;5056420;28;45523;-65
2022/12/13 13:19:52;;;;;;;;;45.50;34.25;;;;;2.85;44.77;99989.63;5056119;28;45630;-64
2022/12/13 13:22:35;;;;;;;;;44.75;35.00;;;;;3.02;44.31;99989.97;5037743;28;45881;-65
2022/12/13 13:25:07;;;;;;;;;36.25;31.25;;;;;3.05;44.43;99982.25;5041315;28;45669;-65
2022/12/13 13:27:44;;;;;;;;;39.25;33.75;;;;;3.17;44.54;99986.81;5036561;28;45689;-65
2022/12/13 13:30:21;;;;;;;;;42.75;35.00;;;;;3.24;44.40;99986.09;5055059;28;47132;-65
2022/12/13 13:32:48;;;;;;;;;38.25;33.25;;;;;3.26;44.50;99968.88;5038393;28;45480;-63
2022/12/13 13:35:29;;;;;;;;;43.75;33.25;;;;;3.27;43.95;99973.19;5054997;28;45501;-62
2022/12/13 13:37:56;;;;;;;;;40.25;33.50;;;;;3.20;44.10;99968.75;5054374;28;45520;-63
2022/12/13 13:40:38;;;;;;;;;37.50;31.25;;;;;3.25;44.12;99967.16;5053623;28;45489;-63
2022/12/13 13:43:09;;;;;;;;;35.25;26.75;;;;;3.30;44.29;99965.50;5041570;28;45607;-65
2022/12/13 13:45:53;;;;;;;;;41.75;32.75;;;;;3.31;44.46;99966.38;5057050;28;45298;-63
2022/12/13 13:48:35;;;;;;;;;42.25;31.50;;;;;3.34;44.58;99967.28;5054522;28;45357;-63
2022/12/13 13:51:31;;;;;;;;;35.50;28.25;;;;;3.43;44.49;99976.97;5065204;28;46349;-63
2022/12/13 13:54:25;;;;;;;;;30.50;28.00;;;;;3.59;44.38;99972.94;5043409;28;45502;-64
2022/12/13 13:56:54;;;;;;;;;30.50;26.00;;;;;3.78;43.96;99971.53;5058288;28;45426;-64
2022/12/13 14:00:00;;;;;;;;;43.00;35.00;;;;;3.87;44.02;99960.44;5040500;28;45548;-64
2022/12/13 14:02:28;;;;;;;;;34.25;31.00;;;;;3.84;43.41;99958.69;5029157;28;46134;-65
2022/12/13 14:05:12;;;;;;;;;40.00;31.50;;;;;3.75;42.98;99971.47;5055217;28;45556;-64
2022/12/13 14:08:09;;;;;;;;;36.25;29.75;;;;;3.60;42.61;99972.94;5063100;28;46358;-63
2022/12/13 14:11:00;;;;;;;;;35.50;31.00;;;;;3.46;43.71;99973.53;5047149;28;45409;-62
2022/12/13 14:13:43;;;;;;;;;36.75;29.00;;;;;3.36;43.51;99970.78;5052658;28;46169;-63
2022/12/13 14:16:30;;;;;;;;;36.75;30.25;;;;;3.42;44.08;99979.50;5061560;28;45316;-64
2022/12/13 14:19:18;;;;;;;;;38.50;34.00;;;;;3.28;43.83;99989.63;5034762;28;45437;-62
2022/12/13 14:22:17;;;;;;;;;34.75;29.00;;;;;3.28;43.60;99985.31;5043212;28;45536;-64
2022/12/13 14:25:11;;;;;;;;;35.25;31.00;;;;;3.24;43.30;99970.56;5052149;27;46614;-64
2022/12/13 14:27:42;;;;;;;;;36.75;30.50;;;;;3.11;44.02;99961.69;5035745;28;45524;-62
2022/12/13 14:30:14;;;;;;;;;41.00;31.25;;;;;3.05;43.93;99960.69;5039453;28;45504;-64
2022/12/13 14:32:41;;;;;;;;;40.25;31.00;;;;;3.08;43.86;99955.56;5026157;28;45535;-64
2022/12/13 14:35:27;;;;;;;;;43.50;32.00;;;;;3.12;44.35;99954.81;5060997;28;46485;-65
2022/12/13 14:38:04;;;;;;;;;35.00;29.00;;;;;3.11;43.87;99950.47;5058931;28;45343;-64
2022/12/13 14:40:36;;;;;;;;;34.00;30.75;;;;;3.13;43.57;99959.13;5050686;28;45324;-64
2022/12/13 14:43:02;;;;;;;;;31.50;28.75;;;;;3.15;43.95;99960.03;5053305;28;45469;-64
2022/12/13 14:45:37;;;;;;;;;37.50;29.25;;;;;3.14;44.19;99966.06;5034544;28;46312;-63
2022/12/13 14:48:11;;;;;;;;;36.00;27.00;;;;;3.11;43.83;99961.69;5038637;28;45525;-63
2022/12/13 14:50:38;;;;;;;;;37.50;32.75;;;;;3.16;43.49;99964.38;5055887;28;45500;-63
2022/12/13 14:53:05;;;;;;;;;26.25;23.25;;;;;3.10;44.66;99970.28;5037979;28;45505;-62
2022/12/13 14:55:36;;;;;;;;;30.75;26.50;;;;;3.08;43.49;99973.69;5052816;28;45983;-63
2022/12/13 14:58:14;;;;;;;;;34.50;29.50;;;;;3.06;43.82;99971.09;5052782;28;45919;-63
2022/12/13 15:00:40;;;;;;;;;33.00;25.25;;;;;3.05;43.81;99971.03;5055497;27;45741;-64
2022/12/13 15:03:06;;;;;;;;;38.75;30.50;;;;;2.89;44.98;99962.97;5057642;28;45849;-63
2022/12/13 15:05:49;;;;;;;;;38.50;29.50;;;;;2.88;44.46;99968.97;5033734;28;46631;-63
2022/12/13 15:08:19;;;;;;;;;28.50;26.50;;;;;2.80;44.06;99980.00;5035548;28;45519;-64
2022/12/13 15:10:52;;;;;;;;;33.25;28.50;;;;;2.74;44.52;99985.94;5038570;28;45662;-63
2022/12/13 15:13:26;;;;;;;;;35.75;27.50;;;;;2.67;44.39;99986.63;5057068;28;45380;-64
2022/12/13 15:16:01;;;;;;;;;43.25;32.00;;;;;2.61;45.44;99963.22;5063806;27;45431;-64
2022/12/13 15:18:28;;;;;;;;;30.25;24.75;;;;;2.63;45.26;99977.91;5039378;28;45511;-64
2022/12/13 15:20:56;;;;;;;;;41.50;29.50;;;;;2.64;44.81;99968.47;5052828;28;45678;-64
2022/12/13 15:23:28;;;;;;;;;37.75;29.25;;;;;2.70;44.62;99973.75;5059021;28;45632;-64
2022/12/13 15:26:02;;;;;;;;;37.50;31.00;;;;;2.66;46.02;99961.63;5045960;28;46507;-66
2022/12/13 15:28:33;;;;;;;;;35.75;30.25;;;;;2.64;45.94;99976.22;5038453;28;45694;-63
2022/12/13 15:31:00;;;;;;;;;40.50;26.50;;;;;2.66;45.23;99997.84;5057012;28;45512;-63
2022/12/13 15:33:27;;;;;;;;;39.00;29.50;;;;;2.54;45.07;99976.03;5050462;28;45419;-66
2022/12/13 15:36:08;;;;;;;;;32.25;28.25;;;;;2.61;45.92;99976.16;5055688;28;45507;-63
2022/12/13 15:38:39;;;;;;;;;39.00;27.00;;;;;2.55;44.74;99962.25;5060263;28;45562;-63
2022/12/13 15:41:05;;;;;;;;;36.25;31.75;;;;;2.49;45.18;99944.03;5040488;28;45843;-64
2022/12/13 15:43:55;;;;;;;;;36.25;26.75;;;;;2.39;45.52;99949.81;5055604;28;45567;-64
2022/12/13 15:46:29;;;;;;;;;32.25;27.50;;;;;2.39;45.83;99936.91;5046085;28;46421;-64
2022/12/13 15:48:57;;;;;;;;;29.75;24.25;;;;;2.39;46.79;99936.03;5059952;28;45488;-64
2022/12/13 15:51:23;;;;;;;;;31.75;24.75;;;;;2.28;46.15;99902.22;5062899;28;45547;-64
2022/12/13 15:54:22;;;;;;;;;32.00;25.00;;;;;2.35;45.82;99914.44;5064714;28;45937;-65
2022/12/13 15:57:10;;;;;;;;;33.00;27.00;;;;;2.52;47.14;99944.09;5053358;28;47090;-63
2022/12/13 15:59:36;;;;;;;;;35.00;31.25;;;;;2.55;46.83;99938.97;5049341;28;45560;-62
2022/12/13 16:02:03;;;;;;;;;40.00;28.75;;;;;2.56;46.41;99934.69;5059356;28;45346;-64
2022/12/13 16:04:31;;;;;;;;;32.75;27.50;;;;;2.59;45.98;99939.03;5031874;28;45395;-63
2022/12/13 16:06:59;;;;;;;;;33.75;27.75;;;;;2.60;46.80;99938.22;5054601;28;46529;-63
2022/12/13 16:09:32;;;;;;;;;40.50;32.25;;;;;2.39;46.87;99920.53;5017091;28;45848;-64
2022/12/13 16:12:00;;;;;;;;;39.50;32.25;;;;;2.52;46.19;99944.09;5038037;28;45608;-62
2022/12/13 16:14:29;;;;;;;;;40.50;32.50;;;;;2.50;47.38;99945.78;5068444;28;45864;-61
2022/12/13 16:16:57;;;;;;;;;40.50;32.50;;;;;2.38;47.30;99930.00;5070148;27;46070;-64
2022/12/13 16:19:23;;;;;;;;;29.00;25.00;;;;;2.42;47.37;99934.41;5055445;28;45541;-64
2022/12/13 16:21:49;;;;;;;;;33.00;28.50;;;;;2.42;48.03;99941.25;5043434;28;45456;-64
2022/12/13 16:24:14;;;;;;;;;35.75;32.00;;;;;2.35;47.76;99942.88;5063302;28;45435;-63
2022/12/13 16:26:45;;;;;;;;;36.25;31.50;;;;;2.28;48.06;99939.25;5059486;28;46433;-64
2022/12/13 16:29:13;;;;;;;;;32.00;30.25;;;;;2.35;48.27;99948.03;5059419;28;45446;-63
2022/12/13 16:31:39;;;;;;;;;36.75;28.50;;;;;2.38;47.97;99945.50;5057203;28;45417;-64
2022/12/13 16:34:05;;;;;;;;;36.25;31.75;;;;;2.40;47.97;99942.97;5053680;28;45500;-63
2022/12/13 16:36:32;;;;;;;;;42.25;34.50;;;;;2.39;48.45;99936.91;5067051;28;47228;-63
2022/12/13 16:38:58;;;;;;;;;45.50;34.00;;;;;2.37;48.33;99923.06;5054163;28;45580;-64
2022/12/13 16:41:24;;;;;;;;;35.50;31.25;;;;;2.40;47.89;99923.16;5042958;28;45407;-64
2022/12/13 16:43:53;;;;;;;;;41.25;30.50;;;;;2.40;48.46;99904.19;5050099;28;45609;-65
2022/12/13 16:46:18;;;;;;;;;41.25;33.75;;;;;2.40;48.55;99905.06;5054066;28;46292;-64
2022/12/13 16:48:44;;;;;;;;;39.50;32.50;;;;;2.29;48.90;99894.47;5049644;28;45665;-64
2022/12/13 16:51:10;;;;;;;;;43.75;33.25;;;;;2.32;48.88;99898.84;5051422;28;45736;-63
2022/12/13 16:53:35;;;;;;;;;44.00;34.50;;;;;2.19;48.61;99892.53;5057948;28;45911;-65
2022/12/13 16:56:01;;;;;;;;;34.75;30.50;;;;;2.21;48.86;99915.84;5065349;28;46078;-63
2022/12/13 16:58:26;;;;;;;;;36.75;29.75;;;;;2.09;49.03;99912.13;5055362;28;45569;-64
2022/12/13 17:00:53;;;;;;;;;50.75;35.50;;;;;2.15;48.93;99918.28;5056102;28;45343;-65
2022/12/13 17:03:19;;;;;;;;;42.25;33.25;;;;;2.07;49.24;99908.63;5047906;28;45387;-63
2022/12/13 17:05:45;;;;;;;;;35.75;30.00;;;;;2.02;49.46;99907.66;5032970;28;46694;-65
2022/12/13 17:08:13;;;;;;;;;38.00;32.50;;;;;2.05;49.22;99912.03;5052688;28;45581;-64
2022/12/13 17:10:46;;;;;;;;;38.00;32.75;;;;;1.98;49.79;99911.00;5035887;28;46272;-63
2022/12/13 17:13:12;;;;;;;;;33.25;30.25;;;;;2.11;50.56;99918.22;5051492;28;45696;-64
2022/12/13 17:15:37;;;;;;;;;27.50;23.75;;;;;2.08;49.49;99910.38;5052906;27;45760;-63
2022/12/13 17:18:03;;;;;;;;;39.00;31.75;;;;;2.05;48.94;99919.78;5052531;28;46120;-64
2022/12/13 17:20:29;;;;;;;;;40.50;33.00;;;;;2.15;49.16;99936.34;5042042;28;45410;-63
2022/12/13 17:22:55;;;;;;;;;39.75;33.75;;;;;2.15;49.71;99926.03;5055049;28;45470;-64
2022/12/13 17:25:20;;;;;;;;;37.50;28.75;;;;;2.12;49.72;99919.94;5049816;28;45973;-63
2022/12/13 17:27:46;;;;;;;;;48.25;29.00;;;;;2.08;49.17;99905.19;5050693;28;45814;-65
2022/12/13 17:30:15;;;;;;;;;39.25;33.75;;;;;2.16;49.81;99907.09;5054764;28;45473;-64
2022/12/13 17:32:44;;;;;;;;;48.75;39.00;;;;;2.23;50.22;99912.44;5057978;27;46271;-64
2022/12/13 17:35:11;;;;;;;;;43.50;33.75;;;;;2.11;50.30;99894.06;5022177;28;47799;-64
2022/12/13 17:37:37;;;;;;;;;44.00;35.75;;;;;2.11;49.81;99888.91;5058753;27;45587;-63
2022/12/13 17:40:05;;;;;;;;;42.00;34.75;;;;;2.15;50.20;99905.34;5037706;28;45611;-63
2022/12/13 17:42:33;;;;;;;;;44.50;33.00;;;;;2.09;50.31;99908.69;5051581;28;45660;-64
2022/12/13 17:44:59;;;;;;;;;40.25;31.25;;;;;2.07;49.92;99898.31;5034037;28;45513;-65
2022/12/13 17:47:25;;;;;;;;;41.75;33.00;;;;;2.10;49.87;99900.09;5017206;28;45782;-63
2022/12/13 17:49:51;;;;;;;;;31.75;25.75;;;;;2.07;49.90;99894.84;5022388;28;45470;-64
2022/12/13 17:52:17;;;;;;;;;36.75;32.75;;;;;2.13;50.52;99895.84;5037055;28;45470;-63
2022/12/13 17:54:42;;;;;;;;;45.75;35.25;;;;;2.13;50.75;99890.69;5051489;28;45623;-62
2022/12/13 17:57:10;;;;;;;;;42.50;32.75;;;;;2.10;50.39;99898.38;5053883;28;45549;-63
2022/12/13 17:59:38;;;;;;;;;60.00;46.00;;;;;2.17;52.77;99908.84;5034820;28;45627;-63
2022/12/13 18:02:04;;;;;;;;;49.25;35.75;;;;;2.11;50.78;99878.56;5053542;28;45529;-63
2022/12/13 18:04:30;;;;;;;;;61.67;44.67;;;;;1.93;51.77;99848.06;5049872;28;45600;-63
2022/12/13 18:06:56;;;;;;;;;39.25;34.00;;;;;2.23;50.59;99906.38;5051758;28;45562;-62
2022/12/13 18:09:23;;;;;;;;;41.75;31.25;;;;;2.17;51.02;99898.50;5031339;28;45588;-64
2022/12/13 18:11:49;;;;;;;;;45.50;35.25;;;;;2.13;50.81;99894.97;5049371;28;46190;-63
2022/12/13 18:14:14;;;;;;;;;39.00;33.50;;;;;2.20;50.31;99898.56;5051044;28;45587;-65
2022/12/13 18:16:40;;;;;;;;;41.25;32.25;;;;;2.06;50.98;99875.00;5064415;28;45548;-62
2022/12/13 18:19:07;;;;;;;;;41.00;35.00;;;;;2.14;51.02;99886.41;5052709;28;45331;-64
2022/12/13 18:21:34;;;;;;;;;46.50;36.75;;;;;2.09;50.59;99870.81;5041310;28;45568;-64
2022/12/13 18:23:59;;;;;;;;;48.25;34.25;;;;;2.09;50.29;99863.06;5051728;28;45831;-64
2022/12/13 18:26:25;;;;;;;;;47.25;35.25;;;;;2.12;50.50;99880.34;5057617;28;46134;-64
2022/12/13 18:28:51;;;;;;;;;39.00;32.00;;;;;2.07;50.75;99881.94;5051842;28;45502;-64
2022/12/13 18:31:20;;;;;;;;;42.00;33.25;;;;;2.12;51.04;99895.81;5050558;28;45451;-63
2022/12/13 18:33:48;;;;;;;;;41.75;31.75;;;;;2.09;50.88;99886.31;5055569;28;45460;-63
2022/12/13 18:36:15;;;;;;;;;38.50;33.50;;;;;2.13;50.98;99898.44;5066059;28;45549;-63
2022/12/13 18:38:41;;;;;;;;;44.00;34.75;;;;;2.10;50.08;99888.03;5039063;28;45453;-64
2022/12/13 18:41:16;;;;;;;;;46.50;34.50;;;;;2.16;50.59;99887.31;5034672;28;45536;-66
2022/12/13 18:43:43;;;;;;;;;46.00;35.00;;;;;2.17;50.53;99877.84;5051987;28;45734;-63